首页
METAR-TAF:

METAR-TAF

机场 :

納希切萬, 阿塞拜疆

纬度: 39-11-19N, 经度: 045-27-30E, 海拔: 873米

当前天气观测

该预报发布于19分钟前的16:00 UTC
风速6节,风向东转东北
温度 2°C
湿度 93%
气压 1017 hPa
能見度: 4100
散云层高于3300英尺
多云层高于8300英尺
轻雾

METAR: UBBN 121600Z 06006KT 4100 BR SCT033 BKN083 02/01 Q1017 R14R/CLRD// NOSIG RMK MT OBSC QFE687

时间: 20:19 (16:19 UTC)

预报

该预报发布于5小时和17分钟前的11:02 UTC
预报有效从12日的 12点(UTC)到 13日的 12点(UTC)
风速4节,风向多变
能見度: 8000
散云层高于1600英尺
阴天层高于3000英尺
短暂存在
从 12日的 12点(UTC)到 12日的 16点(UTC)
风速6节,风向西转西南
短暂存在
从 12日的 16点(UTC)到 12日的 23点(UTC)
能見度: 5000
阴天层高于2000英尺
轻雾

TAF: UBBN 121102Z 1212/1312 VRB04KT 8000 SCT016 OVC030 TX04/1212Z TNM00/1303Z TEMPO 1212/1216 25006KT TEMPO 1216/1223 5000 BR OVC020

超过4000个机场的气象观测和天气预报(METAR&TAF报告)。

可查询的气象台以黄色和红色小点在地图上表示。

将鼠标移到小点上方,可查看气象台名称。

然后点击查看天气观测和预报。

如需切换地图:点击带黑十字的绿色按钮放大地图;点击带横线的绿色按钮缩小地图;或者点击绿色箭头查看邻近地区的地图。


METAR-TAF: